Local

EHAM

EHAM 231755Z 12007KT CAVOK 09/04 Q1036 NOSIG

EHAM

TAF EHAM 231705Z 2318/2424 13005KT CAVOK

METAR Cross-country

EHKD

EHKD 231755Z AUTO 11007KT 9999 OVC410 08/06 Q1036 BLU 12007KT CAVOK

EHGG

EHGG 231755Z AUTO 11004KT 080V150 9999 NSC 07/02 Q1037 NOSIG

EDLW

EHLW 231755Z AUTO 13007KT 9999 NCD 08/05 Q1037 BLU

EDDW

EDDW 231750Z 12005KT CAVOK 06/M01 Q1039 NOSIG

EHRD

EHRD 231755Z AUTO 11005KT 9999 NSC 09/04 Q1036 NOSIG

EHDL

EHDL 231755Z AUTO 10005KT 050V160 9999 FEW430 06/02 Q1036 BLU

EHEH

EHEH 231755Z AUTO 11005KT 020V140 9999 OVC390 10/01 Q1036 BLU 12006KT CAVOK

EBAW

EBAW 231750Z 11006KT CAVOK 08/03 Q1035 NOSIG

EHBK

EHBK 231755Z AUTO 09009KT 9999 NSC 08/02 Q1035 NOSIG

TAF Cross-country

EHKD

TAF EHKD 231715Z 2318/2406 13006KT CAVOK

EHGG

TAF EHGG 231707Z 2318/2424 15005KT CAVOK PROB30 2401/2409 7000 PROB40 2421/2424 5000 MIFG

EDDW

TAF EDDW 231700Z 2318/2418 13005KT CAVOK BECMG 2322/2324 20004KT

EHRD

TAF EHRD 231705Z 2318/2424 13005KT CAVOK

EHEH

TAF EHEH 231715Z 2318/2424 12006KT CAVOK BECMG 2410/2413 VRB02KT

EHBK

TAF EHBK 231707Z 2318/2424 10007KT CAVOK

Weerbulletin KNMI

Gebruik deze link voor hoogtewinden en omschrijving weersituatie voor de kleine luchtvaart.

Weerminima

Gebruik deze link voor onze weerminima bij lokale- en overland (Dual en Solo) lesvluchten.

Meest voorkomende afkortingen

code vb uitleg
ddtttt 211525 De dag van de maand met de tijd in UTC
zicht 4000 Zicht op 10 meter hoogte 4000 meter
FG Mist (zicht tussen 0-1000 meter)
BR Nevel (zicht tussen 1000-5000 meter)
DZ Motregen
OVC OVC020 Overcast bewolking (8/8 bedekking) 2000 ft
BKN BKN015 Broken bewolking (5/8-7/8 bedekking) 1500 ft
SCT SCT005 Scattered bewolking(3/8-4/8 bedekking) 500 ft
FEW FEW003 Few bewolking (1/8-2/8 bedekking) 300 ft
CAVOK Clouds And Visibility OKay Zicht meer dan 10 km, Geen CB/TCU’s in de buurt, wolkenbasis hoger dan 5000 ft en geen significant weer.
T/D 08/05 Temperatuur/Dauwpunt
QNH QNH1001 Luchtdruk op zeeniveau van 1001 hPa
RA -RA Matige Regen (+ = zwaar en – = matig)

Verwachte regenval vandaag

6 UTC

12 UTC

18 UTC

Disclaimer: Deze tool helpt bij een veilige vluchtuitvoering en de Pilot In Command blijft verantwoordelijk voor gebruik van de originele en meest actuele bronnen. Refresh deze pagina voor het meest actuele weer.